createdAt,value
2018-03-26T00:00:20.567Z,24.63
2018-03-26T00:02:49.586Z,25.17
2018-03-26T00:05:17.768Z,28.33
2018-03-26T00:07:45.993Z,30.80
2018-03-26T00:10:24.234Z,24.13
2018-03-26T00:12:52.484Z,26.50
2018-03-26T00:15:21.507Z,30.70
2018-03-26T00:20:50.263Z,21.67
2018-03-26T00:23:19.954Z,26.03
2018-03-26T00:25:48.914Z,23.50
2018-03-26T00:28:17.190Z,23.03
2018-03-26T00:30:45.368Z,23.70
2018-03-26T00:33:23.950Z,25.77
2018-03-26T00:35:52.148Z,22.40
2018-03-26T00:38:23.682Z,24.37
2018-03-26T00:40:52.650Z,22.47
2018-03-26T00:43:20.823Z,23.80
2018-03-26T00:45:48.999Z,21.60
2018-03-26T00:48:22.927Z,25.57
2018-03-26T00:50:51.877Z,21.63
2018-03-26T00:53:38.127Z,19.97
2018-03-26T00:56:07.076Z,20.70
2018-03-26T00:58:35.247Z,21.17
2018-03-26T01:01:03.490Z,21.27
2018-03-26T01:03:31.674Z,21.23
2018-03-26T01:06:23.581Z,22.73
2018-03-26T01:08:51.762Z,19.80
2018-03-26T01:11:19.950Z,21.67
2018-03-26T01:13:48.159Z,20.50
2018-03-26T01:16:22.949Z,21.63
2018-03-26T01:18:51.270Z,21.10
2018-03-26T01:21:25.694Z,20.20
2018-03-26T01:23:53.908Z,23.53
2018-03-26T01:26:22.153Z,20.10
2018-03-26T01:28:50.392Z,22.47
2018-03-26T01:31:18.607Z,22.97
2018-03-26T01:34:26.954Z,21.53
2018-03-26T01:36:55.248Z,20.07
2018-03-26T01:39:23.411Z,20.47
2018-03-26T01:41:51.606Z,19.43
2018-03-26T01:44:23.256Z,20.50
2018-03-26T01:46:51.541Z,21.27
2018-03-26T01:49:19.721Z,22.20
2018-03-26T01:51:48.785Z,19.40
2018-03-26T01:54:16.980Z,20.10
2018-03-26T01:56:45.163Z,26.73
2018-03-26T01:59:13.376Z,28.30
2018-03-26T02:01:41.551Z,26.13
2018-03-26T02:04:09.850Z,21.07
2018-03-26T02:06:38.068Z,19.67
2018-03-26T02:12:07.260Z,19.63
2018-03-26T02:14:37.059Z,21.43
2018-03-26T02:17:25.322Z,20.20
2018-03-26T02:19:53.490Z,20.10
2018-03-26T02:22:21.672Z,30.73
2018-03-26T02:24:49.894Z,20.90
2018-03-26T02:27:18.088Z,20.33
2018-03-26T02:29:46.483Z,20.00
2018-03-26T02:32:14.708Z,22.07
2018-03-26T02:34:42.893Z,23.60
2018-03-26T02:37:11.085Z,22.23
2018-03-26T02:42:41.498Z,21.20
2018-03-26T02:45:09.688Z,19.23
2018-03-26T02:47:37.884Z,19.30
2018-03-26T02:50:06.101Z,20.57
2018-03-26T02:52:35.052Z,19.57
2018-03-26T02:55:03.232Z,18.17
2018-03-26T02:57:31.450Z,25.00
2018-03-26T03:00:00.412Z,25.23
2018-03-26T03:02:28.610Z,17.97
2018-03-26T03:04:57.602Z,19.90
2018-03-26T03:07:26.552Z,20.23
2018-03-26T03:09:54.737Z,18.00
2018-03-26T03:12:23.484Z,18.27
2018-03-26T03:14:51.671Z,18.10
2018-03-26T03:17:19.875Z,19.70
2018-03-26T03:19:48.102Z,18.80
2018-03-26T03:22:23.621Z,16.60
2018-03-26T03:24:52.592Z,18.17
2018-03-26T03:27:20.782Z,19.23
2018-03-26T03:29:49.944Z,22.20
2018-03-26T03:32:18.154Z,19.90
2018-03-26T03:34:47.180Z,20.43
2018-03-26T03:37:15.373Z,22.63
2018-03-26T03:39:43.597Z,21.77
2018-03-26T03:42:12.548Z,21.73
2018-03-26T03:44:40.735Z,29.20
2018-03-26T03:47:09.029Z,29.50
2018-03-26T03:49:38.037Z,26.50
2018-03-26T03:52:06.980Z,23.50
2018-03-26T03:58:06.403Z,22.70
2018-03-26T04:00:34.621Z,20.50
2018-03-26T04:03:03.568Z,23.90
2018-03-26T04:05:31.746Z,26.40
2018-03-26T04:07:59.956Z,23.57
2018-03-26T04:10:28.899Z,23.17
2018-03-26T04:12:57.084Z,23.57
2018-03-26T04:15:25.313Z,24.80
2018-03-26T04:18:23.251Z,26.67
2018-03-26T04:20:51.482Z,26.27
2018-03-26T04:23:19.675Z,28.93
2018-03-26T04:25:47.874Z,26.77
2018-03-26T04:28:16.084Z,29.37
2018-03-26T04:30:44.632Z,32.30
2018-03-26T04:33:13.585Z,25.60
2018-03-26T04:35:41.816Z,25.33
2018-03-26T04:38:10.764Z,29.00
2018-03-26T04:40:38.957Z,26.10
2018-03-26T04:43:07.935Z,27.80
2018-03-26T04:48:39.554Z,30.13
2018-03-26T04:51:07.738Z,28.50
2018-03-26T04:53:35.957Z,27.17
2018-03-26T04:56:04.150Z,28.90
2018-03-26T04:58:33.091Z,26.97
2018-03-26T05:01:01.315Z,27.30
2018-03-26T05:06:17.247Z,25.80
2018-03-26T05:08:45.444Z,32.30
2018-03-26T05:11:13.635Z,30.30
2018-03-26T05:16:42.001Z,26.30
2018-03-26T05:19:10.186Z,26.30
2018-03-26T05:21:38.372Z,26.50
2018-03-26T05:24:06.771Z,29.17
2018-03-26T05:26:34.948Z,25.07
2018-03-26T05:29:03.137Z,28.17
2018-03-26T05:31:32.246Z,28.37
2018-03-26T05:34:00.428Z,28.03
2018-03-26T05:36:28.613Z,27.57
2018-03-26T05:38:56.827Z,27.97
2018-03-26T05:41:25.099Z,30.13
2018-03-26T05:43:53.280Z,25.27
2018-03-26T05:46:25.080Z,28.70
2018-03-26T05:48:53.252Z,28.07
2018-03-26T05:51:21.448Z,28.40
2018-03-26T05:53:49.668Z,25.90
2018-03-26T05:56:17.844Z,26.30
2018-03-26T05:58:46.033Z,27.27
2018-03-26T06:01:15.016Z,24.73
2018-03-26T06:03:43.955Z,28.47
2018-03-26T06:06:12.138Z,28.10
2018-03-26T06:08:40.339Z,26.73
2018-03-26T06:11:08.516Z,29.17
2018-03-26T06:13:36.688Z,26.23
2018-03-26T06:16:04.905Z,35.23
2018-03-26T06:21:34.213Z,28.70
2018-03-26T06:30:23.875Z,31.13
2018-03-26T07:00:47.994Z,29.57
2018-03-26T07:03:23.285Z,33.20
2018-03-26T07:08:51.291Z,27.43
2018-03-26T07:11:20.234Z,36.00
2018-03-26T07:13:48.416Z,27.37
2018-03-26T07:16:16.637Z,25.77
2018-03-26T07:21:45.963Z,33.00
2018-03-26T07:24:14.144Z,26.83
2018-03-26T07:26:42.317Z,40.97
2018-03-26T07:29:10.541Z,34.70
2018-03-26T07:31:38.721Z,24.57
2018-03-26T07:34:06.996Z,27.60
2018-03-26T07:36:35.221Z,27.23
2018-03-26T07:39:03.416Z,25.87
2018-03-26T07:41:31.604Z,26.90
2018-03-26T07:43:59.820Z,26.57
2018-03-26T07:46:28.767Z,28.30
2018-03-26T07:48:56.998Z,23.77
2018-03-26T07:51:25.231Z,26.70
2018-03-26T07:53:53.398Z,25.60
2018-03-26T07:56:21.585Z,31.87
2018-03-26T07:58:49.818Z,32.70
2018-03-26T08:01:24.318Z,21.63
2018-03-26T08:03:52.535Z,31.20
2018-03-26T08:06:20.725Z,23.00
2018-03-26T08:08:48.917Z,23.30
2018-03-26T08:11:18.024Z,24.20
2018-03-26T08:13:46.973Z,22.90
2018-03-26T08:16:15.161Z,21.27
2018-03-26T08:18:43.381Z,31.60
2018-03-26T08:21:11.565Z,32.70
2018-03-26T08:23:39.737Z,24.67
2018-03-26T08:26:07.961Z,27.83
2018-03-26T08:31:36.601Z,27.10
2018-03-26T08:34:04.827Z,24.67
2018-03-26T08:36:33.041Z,30.80
2018-03-26T08:39:01.259Z,20.97
2018-03-26T08:41:29.444Z,22.03
2018-03-26T08:43:57.638Z,31.30
2018-03-26T08:46:26.618Z,35.17
2018-03-26T08:48:54.814Z,22.03
2018-03-26T08:51:23.769Z,21.63
2018-03-26T08:53:51.988Z,20.73
2018-03-26T08:56:26.636Z,21.13
2018-03-26T08:58:54.853Z,32.77
2018-03-26T09:07:25.135Z,32.87
2018-03-26T09:09:54.083Z,32.50
2018-03-26T09:12:22.272Z,34.67
2018-03-26T09:14:50.499Z,31.53
2018-03-26T09:17:25.204Z,35.77
2018-03-26T09:22:55.111Z,32.00
2018-03-26T09:28:24.177Z,35.80
2018-03-26T09:34:23.495Z,32.93
2018-03-26T09:46:22.508Z,34.03
2018-03-26T09:48:51.464Z,34.37
2018-03-26T09:54:25.957Z,23.70
2018-03-26T09:56:54.895Z,36.97
2018-03-26T09:59:23.486Z,34.63
2018-03-26T10:04:52.249Z,35.50
2018-03-26T10:19:23.929Z,27.03
2018-03-26T10:24:52.713Z,30.77
2018-03-26T10:27:24.193Z,36.27
2018-03-26T10:33:23.907Z,36.53
2018-03-26T10:38:52.875Z,34.80
2018-03-26T10:50:25.072Z,36.40
2018-03-26T10:55:54.124Z,36.40
2018-03-26T11:01:23.535Z,36.43
2018-03-26T11:07:22.070Z,38.03
2018-03-26T11:19:19.216Z,37.83
2018-03-26T11:43:23.607Z,38.17
2018-03-26T11:46:22.400Z,37.50
2018-03-26T11:49:19.051Z,40.17
2018-03-26T12:00:48.218Z,38.83
2018-03-26T12:03:23.472Z,38.17
2018-03-26T12:09:22.175Z,42.27
2018-03-26T12:18:22.096Z,39.67
2018-03-26T12:27:22.364Z,41.57
2018-03-26T12:48:14.045Z,42.87
2018-03-26T12:51:01.826Z,41.90
2018-03-26T12:53:30.183Z,44.20
2018-03-26T12:56:20.021Z,47.67
2018-03-26T12:59:01.595Z,44.20
2018-03-26T13:29:10.009Z,42.97
2018-03-26T13:31:38.193Z,41.37
2018-03-26T13:52:06.491Z,39.80
2018-03-26T13:54:43.446Z,47.27
2018-03-26T14:03:25.321Z,44.13
2018-03-26T14:06:11.018Z,46.03
2018-03-26T14:11:58.161Z,44.77
2018-03-26T14:14:44.324Z,43.00
2018-03-26T14:17:31.369Z,46.27
2018-03-26T14:19:59.558Z,45.43
2018-03-26T14:22:27.744Z,47.07
2018-03-26T14:24:55.968Z,46.30
2018-03-26T14:27:24.935Z,49.73
2018-03-26T14:29:53.147Z,45.27
2018-03-26T14:48:50.322Z,47.90
2018-03-26T14:51:24.667Z,52.17
2018-03-26T14:53:52.882Z,49.47
2018-03-26T14:56:21.836Z,48.40
2018-03-26T14:58:50.032Z,44.57
2018-03-26T15:04:20.483Z,46.83
2018-03-26T15:06:48.671Z,48.90
2018-03-26T15:09:18.020Z,45.37
2018-03-26T15:11:46.286Z,45.83
2018-03-26T15:14:14.481Z,46.40
2018-03-26T15:16:42.664Z,48.70
2018-03-26T15:19:10.898Z,45.83
2018-03-26T15:21:39.076Z,43.23
2018-03-26T15:24:07.271Z,46.47
2018-03-26T15:26:35.515Z,46.97
2018-03-26T15:29:23.080Z,41.63
2018-03-26T15:31:51.311Z,38.57
2018-03-26T15:37:19.354Z,41.67
2018-03-26T15:39:47.532Z,42.50
2018-03-26T15:45:24.374Z,40.83
2018-03-26T15:47:53.301Z,36.93
2018-03-26T15:50:21.593Z,43.83
2018-03-26T15:52:49.827Z,42.30
2018-03-26T15:55:18.002Z,43.87
2018-03-26T15:57:46.182Z,41.83
2018-03-26T16:00:14.399Z,44.30
2018-03-26T16:02:48.297Z,44.50
2018-03-26T16:05:16.554Z,47.23
2018-03-26T16:07:44.735Z,47.73
2018-03-26T16:16:24.898Z,50.97
2018-03-26T16:18:53.897Z,55.83
2018-03-26T16:21:22.090Z,53.77
2018-03-26T16:23:50.311Z,54.23
2018-03-26T16:26:24.864Z,49.30
2018-03-26T16:28:53.089Z,56.30
2018-03-26T16:31:22.109Z,53.93
2018-03-26T16:33:50.293Z,52.47
2018-03-26T16:36:18.529Z,53.20
2018-03-26T16:41:48.773Z,45.07
2018-03-26T16:47:19.106Z,46.40
2018-03-26T16:49:47.285Z,43.20
2018-03-26T16:52:24.505Z,44.60
2018-03-26T16:54:52.706Z,41.37
2018-03-26T16:57:20.899Z,42.10
2018-03-26T16:59:49.120Z,41.50
2018-03-26T17:02:17.296Z,39.27
2018-03-26T17:04:45.484Z,40.30
2018-03-26T17:07:14.050Z,41.97
2018-03-26T17:09:42.255Z,41.20
2018-03-26T17:12:23.687Z,36.10
2018-03-26T17:17:53.400Z,34.10
2018-03-26T17:20:25.723Z,36.00
2018-03-26T17:22:53.958Z,34.90
2018-03-26T17:25:22.899Z,34.57
2018-03-26T17:27:51.094Z,35.97
2018-03-26T17:30:19.316Z,34.33
2018-03-26T17:35:48.042Z,27.70
2018-03-26T17:41:16.752Z,29.40
2018-03-26T17:43:44.941Z,31.03
2018-03-26T17:46:27.381Z,30.00
2018-03-26T17:51:57.622Z,27.30
2018-03-26T17:54:26.571Z,28.87
2018-03-26T17:57:23.102Z,28.63
2018-03-26T17:59:51.299Z,28.50
2018-03-26T18:05:26.492Z,30.43
2018-03-26T18:10:29.791Z,29.60
2018-03-26T18:12:58.752Z,30.33
2018-03-26T18:15:26.936Z,31.23
2018-03-26T18:17:55.155Z,30.07
2018-03-26T18:20:23.340Z,30.00
2018-03-26T18:25:52.291Z,30.70
2018-03-26T18:28:20.490Z,28.53
2018-03-26T18:30:49.455Z,32.07
2018-03-26T18:33:17.667Z,31.53
2018-03-26T18:35:46.622Z,30.37
2018-03-26T18:38:14.808Z,27.60
2018-03-26T18:40:43.033Z,29.80
2018-03-26T18:43:11.232Z,31.60
2018-03-26T18:45:39.429Z,31.37
2018-03-26T18:48:07.659Z,31.53
2018-03-26T18:50:35.862Z,30.93
2018-03-26T18:53:04.043Z,30.07
2018-03-26T18:55:33.774Z,29.67
2018-03-26T18:58:23.592Z,30.10
2018-03-26T19:00:51.832Z,31.27
2018-03-26T19:06:21.011Z,29.93
2018-03-26T19:08:49.307Z,29.43
2018-03-26T19:13:51.004Z,28.27
2018-03-26T19:16:19.196Z,28.47
2018-03-26T19:18:47.380Z,30.67
2018-03-26T19:21:15.607Z,30.77
2018-03-26T19:23:44.624Z,31.57
2018-03-26T19:26:14.523Z,28.37
2018-03-26T19:28:42.796Z,30.10
2018-03-26T19:31:11.758Z,27.17
2018-03-26T19:33:39.959Z,28.90
2018-03-26T19:36:08.972Z,28.37
2018-03-26T19:38:37.157Z,30.97
2018-03-26T19:41:05.348Z,28.13
2018-03-26T19:43:36.356Z,30.30
2018-03-26T19:46:04.540Z,31.67
2018-03-26T19:48:32.753Z,33.93
2018-03-26T19:54:01.901Z,30.27
2018-03-26T19:56:30.876Z,29.27
2018-03-26T19:58:59.062Z,31.07
2018-03-26T20:01:28.064Z,29.73
2018-03-26T20:07:24.496Z,33.47
2018-03-26T20:09:52.877Z,27.77
2018-03-26T20:12:21.068Z,28.00
2018-03-26T20:23:52.669Z,30.50
2018-03-26T20:26:21.614Z,32.40
2018-03-26T20:28:49.863Z,29.63
2018-03-26T20:31:18.140Z,32.03
2018-03-26T20:33:46.326Z,30.63
2018-03-26T20:36:14.536Z,28.47
2018-03-26T20:38:42.756Z,32.27
2018-03-26T20:41:10.959Z,31.93
2018-03-26T20:43:39.203Z,31.83
2018-03-26T20:46:07.401Z,34.30
2018-03-26T20:48:35.664Z,31.30
2018-03-26T20:54:04.439Z,34.93
2018-03-26T20:56:33.386Z,34.50
2018-03-26T20:59:01.575Z,28.67
2018-03-26T21:01:29.795Z,33.97
2018-03-26T21:03:58.002Z,31.43
2018-03-26T21:06:26.248Z,37.87
2018-03-26T21:08:54.451Z,36.00
2018-03-26T21:11:22.654Z,36.40
2018-03-26T21:13:50.881Z,34.70
2018-03-26T21:19:26.228Z,41.80
2018-03-26T21:21:54.448Z,40.47
2018-03-26T21:24:25.901Z,43.10
2018-03-26T21:26:54.083Z,42.63
2018-03-26T21:29:22.329Z,41.80
2018-03-26T21:37:52.954Z,39.70
2018-03-26T21:40:21.935Z,36.83
2018-03-26T21:42:50.926Z,33.27
2018-03-26T21:45:19.916Z,35.90
2018-03-26T21:47:48.110Z,32.17
2018-03-26T21:50:16.309Z,32.00
2018-03-26T21:52:44.560Z,29.07
2018-03-26T21:55:12.749Z,27.37
2018-03-26T22:00:25.471Z,26.17
2018-03-26T22:02:53.655Z,26.83
2018-03-26T22:05:21.945Z,27.47
2018-03-26T22:07:50.142Z,23.50
2018-03-26T22:10:18.344Z,25.13
2018-03-26T22:12:47.348Z,25.40
2018-03-26T22:15:16.330Z,23.40
2018-03-26T22:17:45.353Z,24.53
2018-03-26T22:20:13.543Z,25.83
2018-03-26T22:22:41.737Z,22.60
2018-03-26T22:25:09.971Z,21.27
2018-03-26T22:27:38.229Z,20.73
2018-03-26T22:30:07.193Z,22.30
2018-03-26T22:32:35.389Z,22.47
2018-03-26T22:35:04.408Z,23.80
2018-03-26T22:37:32.596Z,19.13
2018-03-26T22:40:24.679Z,20.07
2018-03-26T22:42:52.878Z,16.53
2018-03-26T22:45:21.058Z,21.67
2018-03-26T22:47:49.277Z,18.57
2018-03-26T22:50:17.460Z,20.40
2018-03-26T22:52:45.705Z,18.20
2018-03-26T22:55:13.915Z,19.40
2018-03-26T22:57:42.130Z,19.23
2018-03-26T23:00:10.343Z,19.87
2018-03-26T23:02:38.532Z,19.37
2018-03-26T23:05:06.778Z,19.40
2018-03-26T23:07:34.968Z,20.20
2018-03-26T23:10:03.196Z,20.90
2018-03-26T23:12:31.371Z,21.07
2018-03-26T23:15:23.123Z,20.60
2018-03-26T23:17:51.315Z,17.90
2018-03-26T23:20:19.524Z,22.73
2018-03-26T23:22:48.502Z,19.70
2018-03-26T23:25:16.733Z,21.77
2018-03-26T23:27:44.935Z,20.50
2018-03-26T23:30:13.125Z,19.83
2018-03-26T23:32:41.336Z,19.73
2018-03-26T23:38:11.112Z,19.50
2018-03-26T23:40:39.313Z,21.47
2018-03-26T23:45:41.702Z,22.10
2018-03-26T23:48:09.905Z,21.20
2018-03-26T23:50:38.130Z,21.63
2018-03-26T23:53:06.324Z,20.87
2018-03-26T23:55:35.345Z,21.43
2018-03-26T23:58:23.775Z,21.87
